Time;durP1;ratioP1;P1;durP2;ratioP2;P2;SDS_P1;SDS_P2;PMS_P1;PMS_P2;Temp;Humidity;BMP_temperature;BMP_pressure;BME280_temperature;BME280_humidity;BME280_pressure;Samples;Min_cycle;Max_cycle;Signal;HPM_P1;HPM_P2
2022/01/16 00:00:40;;;;;;;374.80;68.28;;;;;;;;;;4959631;28;20039;-68
2022/01/16 00:05:51;;;;;;;375.33;68.13;;;;;;;;;;4959453;28;20046;-67
2022/01/16 00:08:17;;;;;;;348.02;69.43;;;;;;;;;;4967702;28;20030;-67
2022/01/16 00:10:43;;;;;;;387.52;68.55;;;;;;;;;;4993748;28;20038;-67
2022/01/16 00:13:10;;;;;;;377.25;67.82;;;;;;;;;;4957376;28;20036;-68
2022/01/16 00:15:36;;;;;;;352.05;70.55;;;;;;;;;;4961612;28;20030;-68
2022/01/16 00:20:30;;;;;;;419.42;72.45;;;;;;;;;;4963918;28;20119;-67
2022/01/16 00:22:57;;;;;;;399.02;72.78;;;;;;;;;;4965144;28;20039;-67
2022/01/16 00:25:23;;;;;;;420.52;74.40;;;;;;;;;;4968144;28;20037;-68
2022/01/16 00:27:49;;;;;;;375.38;77.05;;;;;;;;;;4957881;28;20035;-68
2022/01/16 00:30:16;;;;;;;438.08;76.65;;;;;;;;;;4990100;28;20378;-68
2022/01/16 00:32:42;;;;;;;378.85;71.20;;;;;;;;;;4964528;28;20489;-68
2022/01/16 00:35:11;;;;;;;386.73;75.50;;;;;;;;;;4966461;28;20037;-68
2022/01/16 00:37:37;;;;;;;373.85;73.55;;;;;;;;;;4966340;28;20026;-68
2022/01/16 00:40:03;;;;;;;393.13;73.90;;;;;;;;;;4953997;28;20334;-67
2022/01/16 00:42:30;;;;;;;397.30;75.10;;;;;;;;;;4992112;28;20027;-68
2022/01/16 00:44:56;;;;;;;419.05;76.30;;;;;;;;;;4958610;28;20050;-68
2022/01/16 00:47:22;;;;;;;368.00;70.05;;;;;;;;;;4958032;28;20070;-68
2022/01/16 00:49:48;;;;;;;352.70;72.78;;;;;;;;;;4957638;28;20094;-67
2022/01/16 00:52:14;;;;;;;389.00;71.93;;;;;;;;;;4994542;28;20047;-67
2022/01/16 00:54:40;;;;;;;408.60;75.45;;;;;;;;;;4967098;28;20038;-68
2022/01/16 00:57:06;;;;;;;423.83;75.78;;;;;;;;;;4970160;28;20031;-68
2022/01/16 00:59:32;;;;;;;434.42;78.32;;;;;;;;;;4960402;28;20069;-67
2022/01/16 01:02:00;;;;;;;431.67;74.35;;;;;;;;;;4962730;28;20046;-68
2022/01/16 01:04:26;;;;;;;429.17;73.97;;;;;;;;;;4994324;28;20023;-67
2022/01/16 01:06:53;;;;;;;383.15;68.40;;;;;;;;;;4963777;28;20062;-68
2022/01/16 01:09:19;;;;;;;338.67;68.10;;;;;;;;;;4955998;28;20030;-68
2022/01/16 01:11:49;;;;;;;354.25;69.03;;;;;;;;;;4960548;28;20027;-68
2022/01/16 01:14:27;;;;;;;376.88;72.40;;;;;;;;;;4960868;28;20117;-68
2022/01/16 01:16:55;;;;;;;331.48;68.95;;;;;;;;;;4960160;28;20105;-68
2022/01/16 01:19:29;;;;;;;340.73;71.38;;;;;;;;;;4958386;28;20508;-68
2022/01/16 01:21:55;;;;;;;351.70;68.88;;;;;;;;;;4964302;28;20053;-67
2022/01/16 01:24:23;;;;;;;317.25;67.00;;;;;;;;;;4965926;28;20035;-67
2022/01/16 01:26:56;;;;;;;329.23;68.97;;;;;;;;;;4965668;28;20469;-68
2022/01/16 01:29:22;;;;;;;317.83;68.25;;;;;;;;;;4960729;28;20497;-68
2022/01/16 01:31:48;;;;;;;328.98;68.28;;;;;;;;;;4970219;28;20069;-67
2022/01/16 01:34:15;;;;;;;312.55;70.40;;;;;;;;;;4964313;28;20035;-67
2022/01/16 01:36:41;;;;;;;316.23;69.97;;;;;;;;;;4967242;28;20118;-68
2022/01/16 01:39:07;;;;;;;298.17;67.13;;;;;;;;;;4954579;28;20114;-67
2022/01/16 01:41:33;;;;;;;339.90;65.63;;;;;;;;;;4954698;28;20515;-67
2022/01/16 01:52:13;;;;;;;353.80;69.60;;;;;;;;;;4956593;28;20077;-67
2022/01/16 01:54:39;;;;;;;319.45;65.15;;;;;;;;;;4953987;28;20551;-68
2022/01/16 01:57:05;;;;;;;332.70;69.65;;;;;;;;;;4961944;28;20043;-68
2022/01/16 01:59:31;;;;;;;336.08;68.28;;;;;;;;;;4989139;28;20480;-68
2022/01/16 02:01:59;;;;;;;341.30;67.10;;;;;;;;;;4966224;28;20038;-68
2022/01/16 02:04:25;;;;;;;338.60;67.50;;;;;;;;;;4999030;28;20032;-67
2022/01/16 02:06:51;;;;;;;340.10;67.60;;;;;;;;;;4966893;28;20125;-69
2022/01/16 02:09:17;;;;;;;354.90;69.22;;;;;;;;;;4958263;28;20231;-67
2022/01/16 02:11:43;;;;;;;362.65;69.95;;;;;;;;;;4959454;28;20113;-68
2022/01/16 02:14:27;;;;;;;355.35;70.15;;;;;;;;;;4961441;28;20020;-67
2022/01/16 02:35:35;;;;;;;346.33;67.78;;;;;;;;;;4962172;28;20981;-67
2022/01/16 02:38:01;;;;;;;412.25;70.03;;;;;;;;;;4957748;28;20054;-67
2022/01/16 02:40:28;;;;;;;435.05;73.57;;;;;;;;;;4963342;28;20062;-67
2022/01/16 02:42:54;;;;;;;401.58;71.65;;;;;;;;;;4966367;28;20031;-67
2022/01/16 02:45:29;;;;;;;421.98;74.88;;;;;;;;;;4960989;28;20086;-68
2022/01/16 02:47:57;;;;;;;398.60;71.63;;;;;;;;;;4962783;28;20527;-68
2022/01/16 02:50:23;;;;;;;448.80;72.85;;;;;;;;;;4965748;28;20151;-67
2022/01/16 02:52:49;;;;;;;435.88;73.72;;;;;;;;;;4967298;28;20053;-68
2022/01/16 02:55:15;;;;;;;443.15;75.18;;;;;;;;;;4966052;28;20496;-67
2022/01/16 02:57:42;;;;;;;412.33;72.90;;;;;;;;;;4968193;28;20035;-68
2022/01/16 03:00:09;;;;;;;443.10;78.50;;;;;;;;;;4963709;28;20125;-67
2022/01/16 03:02:35;;;;;;;421.95;73.68;;;;;;;;;;4967923;28;20183;-67
2022/01/16 03:05:01;;;;;;;419.42;75.18;;;;;;;;;;4955727;28;20031;-68
2022/01/16 03:07:30;;;;;;;414.83;71.00;;;;;;;;;;4963018;28;20029;-68
2022/01/16 03:12:36;;;;;;;405.40;75.68;;;;;;;;;;4963712;28;20050;-68
2022/01/16 03:15:02;;;;;;;411.83;76.32;;;;;;;;;;4962294;28;20034;-68
2022/01/16 03:17:39;;;;;;;428.48;75.55;;;;;;;;;;4955816;28;20074;-68
2022/01/16 03:22:50;;;;;;;444.38;76.82;;;;;;;;;;4960057;28;20038;-68
2022/01/16 03:25:16;;;;;;;462.02;80.28;;;;;;;;;;4956921;28;20039;-67
2022/01/16 03:27:42;;;;;;;482.60;83.75;;;;;;;;;;4959429;28;20026;-67
2022/01/16 03:30:12;;;;;;;414.65;76.40;;;;;;;;;;4960594;28;20480;-67
2022/01/16 03:32:38;;;;;;;458.75;80.18;;;;;;;;;;4996045;28;20138;-67
2022/01/16 03:35:04;;;;;;;400.73;80.45;;;;;;;;;;4962360;28;20369;-68
2022/01/16 03:37:30;;;;;;;453.52;80.72;;;;;;;;;;4955464;28;20043;-68
2022/01/16 03:39:56;;;;;;;460.95;85.03;;;;;;;;;;4989471;28;20046;-68
2022/01/16 03:42:27;;;;;;;439.83;84.97;;;;;;;;;;4962044;28;20436;-68
2022/01/16 03:44:53;;;;;;;444.08;85.90;;;;;;;;;;4959685;28;20143;-68
2022/01/16 03:47:19;;;;;;;429.88;79.20;;;;;;;;;;4986719;28;20054;-68
2022/01/16 03:49:45;;;;;;;433.30;81.80;;;;;;;;;;4964425;28;20568;-68
2022/01/16 03:52:11;;;;;;;435.48;82.05;;;;;;;;;;4960322;28;20045;-68
2022/01/16 03:54:37;;;;;;;420.15;84.15;;;;;;;;;;4966516;28;20026;-68
2022/01/16 03:57:03;;;;;;;423.70;83.88;;;;;;;;;;4963374;28;20035;-68
2022/01/16 03:59:29;;;;;;;426.27;89.50;;;;;;;;;;4953982;28;20039;-68
2022/01/16 04:01:55;;;;;;;419.73;81.85;;;;;;;;;;4966759;28;20034;-68
2022/01/16 04:04:21;;;;;;;395.77;83.15;;;;;;;;;;4963198;28;20027;-68
2022/01/16 04:06:47;;;;;;;401.33;82.38;;;;;;;;;;4963340;28;20023;-68
2022/01/16 04:09:13;;;;;;;408.95;85.18;;;;;;;;;;4956410;28;20416;-67
2022/01/16 04:11:45;;;;;;;424.13;88.25;;;;;;;;;;4966808;28;20046;-67
2022/01/16 04:14:21;;;;;;;407.00;87.45;;;;;;;;;;4959155;28;20041;-68
2022/01/16 04:16:47;;;;;;;407.30;86.15;;;;;;;;;;4960633;28;20117;-67
2022/01/16 04:19:13;;;;;;;399.17;86.88;;;;;;;;;;4961153;28;20062;-69
2022/01/16 04:21:39;;;;;;;397.45;85.10;;;;;;;;;;4958077;28;20484;-67
2022/01/16 04:24:05;;;;;;;412.35;86.55;;;;;;;;;;4954985;28;20253;-67
2022/01/16 04:26:31;;;;;;;401.27;86.18;;;;;;;;;;4965162;28;20039;-67
2022/01/16 04:28:57;;;;;;;406.88;89.82;;;;;;;;;;4953016;28;20031;-67
2022/01/16 04:31:23;;;;;;;365.88;84.93;;;;;;;;;;4957944;28;20073;-67
2022/01/16 04:33:49;;;;;;;367.85;88.10;;;;;;;;;;4965157;28;20033;-67
2022/01/16 04:36:15;;;;;;;334.58;88.75;;;;;;;;;;4999116;28;20054;-68
2022/01/16 04:38:47;;;;;;;356.88;89.28;;;;;;;;;;4969458;28;20038;-68
2022/01/16 04:43:58;;;;;;;319.17;84.53;;;;;;;;;;4960261;28;20162;-69
2022/01/16 04:46:26;;;;;;;337.20;88.03;;;;;;;;;;4964911;28;20473;-69
2022/01/16 04:48:52;;;;;;;338.65;86.35;;;;;;;;;;4957723;28;20077;-68
2022/01/16 04:51:19;;;;;;;334.40;86.30;;;;;;;;;;4966174;28;20056;-68
2022/01/16 04:53:48;;;;;;;341.55;90.90;;;;;;;;;;4956901;28;20083;-69
2022/01/16 04:56:14;;;;;;;317.05;86.72;;;;;;;;;;4989339;28;20030;-68
2022/01/16 04:58:41;;;;;;;322.70;88.07;;;;;;;;;;4964028;28;20027;-68
2022/01/16 05:01:08;;;;;;;323.92;85.28;;;;;;;;;;4964603;28;20028;-72
2022/01/16 05:03:34;;;;;;;287.85;84.40;;;;;;;;;;4954629;28;20036;-66
2022/01/16 05:06:01;;;;;;;275.40;85.88;;;;;;;;;;4960540;28;20063;-67
2022/01/16 05:08:28;;;;;;;298.73;85.65;;;;;;;;;;4959449;28;20019;-67
2022/01/16 05:10:55;;;;;;;266.13;84.28;;;;;;;;;;4954764;28;20023;-67
2022/01/16 05:18:50;;;;;;;243.27;81.50;;;;;;;;;;4962826;28;20690;-68
2022/01/16 05:21:16;;;;;;;253.00;84.68;;;;;;;;;;4966738;28;20042;-68
2022/01/16 05:23:42;;;;;;;243.68;82.55;;;;;;;;;;4993040;28;20027;-67
2022/01/16 05:26:09;;;;;;;225.75;78.00;;;;;;;;;;4965410;28;20031;-68
2022/01/16 05:28:35;;;;;;;222.23;80.38;;;;;;;;;;4962752;28;20037;-68
2022/01/16 05:31:01;;;;;;;206.43;77.90;;;;;;;;;;4953618;28;20031;-68
2022/01/16 05:33:27;;;;;;;209.15;79.68;;;;;;;;;;4963159;28;20110;-67
2022/01/16 05:35:53;;;;;;;198.85;73.53;;;;;;;;;;4963003;28;20028;-67
2022/01/16 05:38:19;;;;;;;203.43;75.18;;;;;;;;;;4963741;28;20503;-67
2022/01/16 05:40:45;;;;;;;185.93;74.00;;;;;;;;;;4962668;28;20031;-67
2022/01/16 05:43:12;;;;;;;190.10;74.13;;;;;;;;;;4963091;28;20746;-67
2022/01/16 05:45:38;;;;;;;177.00;71.63;;;;;;;;;;4966441;28;20170;-68
2022/01/16 05:48:04;;;;;;;187.80;73.75;;;;;;;;;;4967701;28;20038;-67
2022/01/16 05:50:33;;;;;;;182.55;70.03;;;;;;;;;;4962664;28;20057;-67
2022/01/16 05:53:03;;;;;;;180.60;71.95;;;;;;;;;;4970524;28;20488;-68
2022/01/16 05:55:36;;;;;;;183.88;71.47;;;;;;;;;;4958656;28;20477;-69
2022/01/16 05:58:09;;;;;;;187.57;72.35;;;;;;;;;;4998848;28;20505;-67
2022/01/16 06:00:37;;;;;;;176.57;70.88;;;;;;;;;;4970262;28;20034;-68
2022/01/16 06:03:03;;;;;;;172.95;70.93;;;;;;;;;;4960136;28;20035;-68
2022/01/16 06:05:29;;;;;;;170.40;69.97;;;;;;;;;;4966735;28;20117;-68
2022/01/16 06:08:01;;;;;;;166.82;71.57;;;;;;;;;;4991026;28;20023;-68
2022/01/16 06:10:27;;;;;;;169.18;69.28;;;;;;;;;;4963609;28;20042;-68
2022/01/16 06:12:53;;;;;;;168.82;68.30;;;;;;;;;;4999296;28;20041;-68
2022/01/16 06:15:20;;;;;;;164.73;67.25;;;;;;;;;;4964749;28;20081;-68
2022/01/16 06:17:46;;;;;;;162.32;68.45;;;;;;;;;;4970130;28;20077;-68
2022/01/16 06:20:14;;;;;;;157.02;67.32;;;;;;;;;;4964912;28;20047;-68
2022/01/16 06:22:40;;;;;;;171.02;69.22;;;;;;;;;;4958982;28;20031;-68
2022/01/16 06:25:06;;;;;;;156.48;65.90;;;;;;;;;;4963247;28;20050;-67
2022/01/16 06:27:32;;;;;;;157.60;65.03;;;;;;;;;;4967408;28;20031;-67
2022/01/16 06:29:58;;;;;;;162.73;66.47;;;;;;;;;;4960844;28;20086;-67
2022/01/16 06:32:24;;;;;;;153.93;65.22;;;;;;;;;;4967705;28;20497;-67
2022/01/16 06:34:50;;;;;;;155.35;67.60;;;;;;;;;;4966056;28;20122;-67
2022/01/16 06:37:16;;;;;;;148.95;64.13;;;;;;;;;;4963254;28;20490;-67
2022/01/16 06:39:42;;;;;;;148.60;62.75;;;;;;;;;;4966679;28;20035;-67
2022/01/16 06:42:08;;;;;;;131.27;60.33;;;;;;;;;;4968650;28;20511;-67
2022/01/16 06:44:34;;;;;;;141.18;60.25;;;;;;;;;;4996392;28;20455;-70
2022/01/16 06:47:00;;;;;;;138.43;61.33;;;;;;;;;;4962215;28;20082;-68
2022/01/16 06:49:26;;;;;;;129.15;57.67;;;;;;;;;;4997757;28;20035;-67
2022/01/16 06:51:52;;;;;;;129.30;58.30;;;;;;;;;;4967109;28;20038;-67
2022/01/16 06:54:18;;;;;;;125.07;55.80;;;;;;;;;;4988406;28;20022;-67
2022/01/16 06:56:44;;;;;;;129.52;57.50;;;;;;;;;;4963779;28;20041;-67
2022/01/16 06:59:10;;;;;;;113.90;56.75;;;;;;;;;;4965010;28;20046;-67
2022/01/16 07:01:36;;;;;;;130.48;57.30;;;;;;;;;;4994269;28;20493;-67
2022/01/16 07:04:02;;;;;;;110.85;53.08;;;;;;;;;;4957395;28;20030;-67
2022/01/16 07:06:28;;;;;;;112.40;54.70;;;;;;;;;;4965718;28;20050;-67
2022/01/16 07:08:54;;;;;;;120.72;52.50;;;;;;;;;;4966167;28;20062;-67
2022/01/16 07:11:20;;;;;;;108.95;53.22;;;;;;;;;;4963546;28;20118;-68
2022/01/16 07:13:46;;;;;;;103.28;51.17;;;;;;;;;;4959262;28;20117;-67
2022/01/16 07:16:12;;;;;;;102.13;49.55;;;;;;;;;;4960481;28;20042;-68
2022/01/16 07:18:38;;;;;;;96.65;48.72;;;;;;;;;;4988561;28;20492;-67
2022/01/16 07:21:12;;;;;;;97.15;47.83;;;;;;;;;;4961085;28;20035;-67
2022/01/16 07:23:38;;;;;;;92.85;45.58;;;;;;;;;;4998106;28;20436;-67
2022/01/16 07:26:04;;;;;;;92.15;44.92;;;;;;;;;;4959705;28;20039;-67
2022/01/16 07:28:31;;;;;;;89.28;43.33;;;;;;;;;;4967562;28;20031;-69
2022/01/16 07:30:57;;;;;;;86.00;41.03;;;;;;;;;;4967825;28;20066;-67
2022/01/16 07:33:23;;;;;;;72.53;39.38;;;;;;;;;;4956839;28;20161;-66
2022/01/16 07:35:49;;;;;;;72.53;37.85;;;;;;;;;;4961685;28;20542;-67
2022/01/16 07:38:15;;;;;;;62.20;35.90;;;;;;;;;;4961421;28;20106;-67
2022/01/16 07:40:42;;;;;;;57.08;29.90;;;;;;;;;;4961090;28;20034;-67
2022/01/16 07:43:08;;;;;;;44.40;26.27;;;;;;;;;;4968277;28;20485;-67
2022/01/16 07:45:34;;;;;;;39.38;23.25;;;;;;;;;;4958627;28;20058;-67
2022/01/16 07:48:00;;;;;;;36.67;20.73;;;;;;;;;;4969827;28;20037;-68
2022/01/16 07:50:26;;;;;;;33.30;17.88;;;;;;;;;;4962940;28;20193;-68
2022/01/16 07:52:52;;;;;;;31.23;16.80;;;;;;;;;;4962632;28;20035;-68
2022/01/16 07:55:22;;;;;;;27.25;15.75;;;;;;;;;;4964073;28;20043;-67
2022/01/16 07:57:49;;;;;;;29.45;14.98;;;;;;;;;;4963100;28;20507;-67
2022/01/16 08:00:15;;;;;;;23.38;14.00;;;;;;;;;;4960361;28;20043;-66
2022/01/16 08:02:41;;;;;;;28.45;13.88;;;;;;;;;;4961172;28;20067;-67
2022/01/16 08:05:07;;;;;;;20.58;14.13;;;;;;;;;;4958661;28;20074;-67
2022/01/16 08:07:33;;;;;;;25.48;14.77;;;;;;;;;;4957156;28;20561;-67
2022/01/16 08:09:59;;;;;;;21.52;14.35;;;;;;;;;;4960943;28;20113;-68
2022/01/16 08:12:25;;;;;;;23.67;15.38;;;;;;;;;;4992205;28;20031;-68
2022/01/16 08:14:51;;;;;;;27.15;15.02;;;;;;;;;;4962502;28;20035;-68
2022/01/16 08:17:17;;;;;;;27.48;16.33;;;;;;;;;;4995985;28;20027;-68
2022/01/16 08:19:43;;;;;;;25.52;16.83;;;;;;;;;;4962498;28;20031;-68
2022/01/16 08:22:10;;;;;;;29.40;18.25;;;;;;;;;;4968384;28;20516;-68
2022/01/16 08:24:37;;;;;;;27.60;18.00;;;;;;;;;;4962775;28;20042;-67
2022/01/16 08:27:03;;;;;;;30.63;17.67;;;;;;;;;;4968889;28;20091;-68
2022/01/16 08:29:29;;;;;;;31.08;17.38;;;;;;;;;;4960500;28;20122;-67
2022/01/16 08:31:55;;;;;;;33.47;18.33;;;;;;;;;;4964896;28;20114;-68
2022/01/16 08:34:21;;;;;;;34.10;17.20;;;;;;;;;;4980867;28;20042;-68
2022/01/16 08:36:47;;;;;;;26.35;17.98;;;;;;;;;;4969890;28;20031;-67
2022/01/16 08:39:14;;;;;;;27.48;16.70;;;;;;;;;;4964961;28;20074;-67
2022/01/16 08:41:42;;;;;;;26.35;15.95;;;;;;;;;;4965742;28;20051;-67
2022/01/16 08:44:08;;;;;;;23.48;15.95;;;;;;;;;;4965382;28;20038;-67
2022/01/16 08:46:34;;;;;;;26.38;15.30;;;;;;;;;;4965626;28;20065;-67
2022/01/16 08:49:00;;;;;;;28.38;15.05;;;;;;;;;;4965853;28;20157;-68
2022/01/16 08:51:27;;;;;;;23.70;13.88;;;;;;;;;;4964055;28;20113;-67
2022/01/16 08:53:53;;;;;;;29.52;14.80;;;;;;;;;;4990198;28;20472;-67
2022/01/16 08:56:20;;;;;;;31.38;16.20;;;;;;;;;;4960219;28;20031;-68
2022/01/16 08:58:46;;;;;;;28.27;14.70;;;;;;;;;;4962923;28;20031;-68
2022/01/16 09:01:12;;;;;;;22.00;13.23;;;;;;;;;;4961987;28;20125;-68
2022/01/16 09:03:38;;;;;;;28.95;13.80;;;;;;;;;;4968511;28;20048;-68
2022/01/16 09:06:06;;;;;;;22.40;12.40;;;;;;;;;;4963359;28;20548;-69
2022/01/16 09:08:32;;;;;;;29.15;12.85;;;;;;;;;;4966516;28;20583;-67
2022/01/16 09:10:58;;;;;;;21.70;12.00;;;;;;;;;;4966099;28;20077;-68
2022/01/16 09:13:24;;;;;;;24.30;11.80;;;;;;;;;;4963256;28;20066;-69
2022/01/16 09:15:51;;;;;;;21.77;11.57;;;;;;;;;;4962181;28;20052;-67
2022/01/16 09:18:17;;;;;;;27.85;12.00;;;;;;;;;;4962679;28;20077;-66
2022/01/16 09:20:43;;;;;;;26.08;13.25;;;;;;;;;;4970956;28;20042;-66
2022/01/16 09:23:11;;;;;;;29.75;13.38;;;;;;;;;;4961908;28;20031;-67
2022/01/16 09:25:37;;;;;;;28.95;12.95;;;;;;;;;;4961052;28;20050;-67
2022/01/16 09:28:03;;;;;;;30.17;12.60;;;;;;;;;;4966806;28;20113;-67
2022/01/16 09:30:30;;;;;;;29.17;12.77;;;;;;;;;;4965681;28;20121;-67
2022/01/16 09:32:56;;;;;;;31.52;12.68;;;;;;;;;;4971688;28;20563;-67
2022/01/16 09:35:22;;;;;;;30.35;13.30;;;;;;;;;;4963929;28;20106;-68
2022/01/16 09:37:48;;;;;;;27.40;12.65;;;;;;;;;;4964456;28;20034;-67
2022/01/16 09:40:19;;;;;;;27.25;14.85;;;;;;;;;;4962003;28;20147;-67
2022/01/16 09:42:46;;;;;;;32.97;15.73;;;;;;;;;;4962329;28;20038;-67
2022/01/16 09:45:13;;;;;;;32.25;16.45;;;;;;;;;;4960889;28;20058;-69
2022/01/16 09:47:39;;;;;;;35.63;18.48;;;;;;;;;;4964615;28;20033;-68
2022/01/16 09:50:07;;;;;;;37.38;19.95;;;;;;;;;;4956713;28;20117;-67
2022/01/16 09:52:36;;;;;;;44.25;20.92;;;;;;;;;;4967951;28;20034;-67
2022/01/16 09:55:03;;;;;;;47.65;24.20;;;;;;;;;;4966563;28;20038;-68
2022/01/16 09:57:29;;;;;;;56.85;27.08;;;;;;;;;;4970042;28;20114;-67
2022/01/16 09:59:55;;;;;;;54.47;27.40;;;;;;;;;;4959983;28;20130;-67
2022/01/16 10:02:21;;;;;;;61.97;31.55;;;;;;;;;;4963452;28;20114;-68
2022/01/16 10:04:47;;;;;;;67.38;34.10;;;;;;;;;;4962915;28;20058;-69
2022/01/16 10:07:15;;;;;;;71.88;32.83;;;;;;;;;;4968277;28;20484;-67
2022/01/16 10:09:42;;;;;;;71.75;35.60;;;;;;;;;;4966011;28;20042;-67
2022/01/16 10:12:17;;;;;;;84.95;37.05;;;;;;;;;;4963194;28;20042;-68
2022/01/16 10:14:48;;;;;;;80.30;38.22;;;;;;;;;;4964374;28;20164;-67
2022/01/16 10:17:16;;;;;;;83.15;38.75;;;;;;;;;;4965341;28;20045;-67
2022/01/16 10:19:43;;;;;;;89.47;38.67;;;;;;;;;;4961582;28;20043;-67
2022/01/16 10:22:10;;;;;;;88.00;38.00;;;;;;;;;;4965808;28;20476;-67
2022/01/16 10:24:39;;;;;;;89.65;39.72;;;;;;;;;;4956999;28;20069;-67
2022/01/16 10:27:08;;;;;;;98.03;43.33;;;;;;;;;;4971482;28;20030;-68
2022/01/16 10:29:37;;;;;;;98.22;41.75;;;;;;;;;;4970472;28;20095;-67
2022/01/16 10:32:31;;;;;;;99.30;43.03;;;;;;;;;;4960306;28;20039;-68
2022/01/16 10:35:17;;;;;;;96.88;41.80;;;;;;;;;;4954683;28;20059;-66
2022/01/16 10:37:44;;;;;;;99.65;42.88;;;;;;;;;;4965339;28;20038;-67
2022/01/16 10:40:14;;;;;;;98.15;43.08;;;;;;;;;;4965864;28;20031;-67
2022/01/16 10:42:41;;;;;;;105.18;43.88;;;;;;;;;;4957556;28;20036;-68
2022/01/16 10:45:09;;;;;;;108.60;45.67;;;;;;;;;;4958215;28;20050;-67
2022/01/16 10:47:40;;;;;;;110.72;47.47;;;;;;;;;;4966513;28;20031;-69
2022/01/16 10:50:06;;;;;;;109.90;44.97;;;;;;;;;;4970927;28;20094;-66
2022/01/16 10:52:32;;;;;;;119.03;47.75;;;;;;;;;;4957450;28;20043;-67
2022/01/16 10:55:09;;;;;;;115.18;46.85;;;;;;;;;;4959313;28;20059;-67
2022/01/16 10:57:35;;;;;;;118.45;49.03;;;;;;;;;;4955220;28;20042;-66
2022/01/16 11:00:07;;;;;;;127.18;49.42;;;;;;;;;;4968957;28;20547;-66
2022/01/16 11:02:33;;;;;;;130.63;50.55;;;;;;;;;;4961196;28;20027;-66
2022/01/16 11:05:13;;;;;;;129.10;48.35;;;;;;;;;;4957969;28;20338;-67
2022/01/16 11:07:39;;;;;;;130.65;48.17;;;;;;;;;;4962571;28;20114;-67
2022/01/16 11:10:21;;;;;;;123.13;47.38;;;;;;;;;;4966041;28;20043;-67
2022/01/16 11:12:49;;;;;;;124.88;46.58;;;;;;;;;;4973810;28;20043;-67
2022/01/16 11:15:15;;;;;;;134.75;50.33;;;;;;;;;;4959046;28;20039;-67
2022/01/16 11:17:41;;;;;;;128.82;50.58;;;;;;;;;;4961196;28;20488;-67
2022/01/16 11:20:08;;;;;;;127.32;47.58;;;;;;;;;;4973302;28;20027;-67
2022/01/16 11:22:55;;;;;;;129.38;47.08;;;;;;;;;;4969134;28;20027;-67
2022/01/16 11:25:30;;;;;;;131.95;50.08;;;;;;;;;;4963221;28;20046;-69
2022/01/16 11:27:57;;;;;;;136.85;47.67;;;;;;;;;;4966862;28;20038;-67
2022/01/16 11:30:23;;;;;;;128.90;49.38;;;;;;;;;;4961572;28;20503;-67
2022/01/16 11:32:49;;;;;;;124.38;47.08;;;;;;;;;;4953763;28;20066;-66
2022/01/16 11:35:16;;;;;;;124.78;44.08;;;;;;;;;;4953244;28;20568;-67
2022/01/16 11:37:42;;;;;;;120.57;45.13;;;;;;;;;;4953181;28;20023;-67
2022/01/16 11:40:24;;;;;;;119.72;44.38;;;;;;;;;;4953432;28;20036;-67
2022/01/16 11:43:08;;;;;;;124.95;46.47;;;;;;;;;;4953265;28;20094;-67
2022/01/16 11:45:44;;;;;;;130.10;47.72;;;;;;;;;;4957929;28;20586;-67
2022/01/16 11:48:10;;;;;;;124.75;46.00;;;;;;;;;;4972305;28;20034;-66
2022/01/16 11:50:36;;;;;;;127.28;46.53;;;;;;;;;;4972176;28;20174;-66
2022/01/16 11:53:02;;;;;;;136.10;47.45;;;;;;;;;;4972179;28;20034;-66
2022/01/16 11:55:35;;;;;;;132.73;50.22;;;;;;;;;;5003423;28;20074;-66
2022/01/16 11:58:01;;;;;;;140.50;47.08;;;;;;;;;;4959776;28;20043;-66
2022/01/16 12:00:48;;;;;;;139.48;47.67;;;;;;;;;;4952353;28;20757;-66
2022/01/16 12:03:34;;;;;;;148.93;51.13;;;;;;;;;;4952644;28;20024;-66
2022/01/16 12:06:18;;;;;;;137.50;47.90;;;;;;;;;;4952574;28;20528;-68
2022/01/16 12:08:46;;;;;;;134.23;48.22;;;;;;;;;;4952643;28;20174;-66
2022/01/16 12:11:35;;;;;;;144.05;49.97;;;;;;;;;;4960491;28;20504;-68
2022/01/16 12:14:01;;;;;;;144.45;52.95;;;;;;;;;;4968562;28;20049;-66
2022/01/16 12:16:38;;;;;;;138.38;50.47;;;;;;;;;;4971816;28;20110;-66
2022/01/16 12:19:22;;;;;;;137.73;52.50;;;;;;;;;;4970489;28;20034;-66
2022/01/16 12:21:55;;;;;;;134.75;48.08;;;;;;;;;;4959578;28;20050;-66
2022/01/16 12:24:34;;;;;;;138.00;50.47;;;;;;;;;;4983169;28;20037;-67
2022/01/16 12:27:19;;;;;;;132.98;48.38;;;;;;;;;;4952723;28;20172;-67
2022/01/16 12:30:05;;;;;;;124.93;47.50;;;;;;;;;;4952657;28;20038;-66
2022/01/16 12:32:50;;;;;;;129.80;50.08;;;;;;;;;;4958211;28;20055;-65
2022/01/16 12:35:36;;;;;;;133.27;50.92;;;;;;;;;;4952834;28;20043;-66
2022/01/16 12:38:11;;;;;;;132.20;48.58;;;;;;;;;;4952188;28;20028;-66
2022/01/16 12:40:43;;;;;;;128.43;49.22;;;;;;;;;;4951850;28;20060;-66
2022/01/16 12:43:10;;;;;;;117.70;46.45;;;;;;;;;;4952232;28;20106;-67
2022/01/16 12:45:37;;;;;;;126.53;47.30;;;;;;;;;;4952580;28;20157;-67
2022/01/16 12:48:04;;;;;;;118.10;47.17;;;;;;;;;;4952237;28;20058;-67
2022/01/16 12:50:30;;;;;;;108.13;45.10;;;;;;;;;;4952014;28;20525;-67
2022/01/16 12:52:56;;;;;;;111.43;46.05;;;;;;;;;;4952031;28;20027;-67
2022/01/16 12:55:29;;;;;;;117.95;45.08;;;;;;;;;;4951862;28;20115;-67
2022/01/16 12:57:55;;;;;;;113.85;43.15;;;;;;;;;;4951990;28;20448;-67
2022/01/16 13:00:21;;;;;;;99.78;42.20;;;;;;;;;;4951592;28;20031;-67
2022/01/16 13:02:54;;;;;;;110.20;43.08;;;;;;;;;;4951777;28;20027;-67
2022/01/16 13:05:21;;;;;;;97.00;40.90;;;;;;;;;;4982344;28;20023;-67
2022/01/16 13:07:47;;;;;;;90.10;39.45;;;;;;;;;;4951658;28;20035;-67
2022/01/16 13:10:13;;;;;;;101.20;43.58;;;;;;;;;;4951439;28;20102;-67
2022/01/16 13:12:39;;;;;;;94.15;40.67;;;;;;;;;;4964985;28;20031;-67
2022/01/16 13:15:05;;;;;;;89.55;39.55;;;;;;;;;;4970668;28;20049;-67
2022/01/16 13:17:32;;;;;;;87.80;39.40;;;;;;;;;;4971164;28;20039;-67
2022/01/16 13:20:01;;;;;;;90.35;40.20;;;;;;;;;;4969571;28;20052;-67
2022/01/16 13:22:28;;;;;;;85.07;36.92;;;;;;;;;;4981882;28;20107;-67
2022/01/16 13:25:06;;;;;;;77.45;37.08;;;;;;;;;;4951418;28;20054;-66
2022/01/16 13:27:37;;;;;;;79.03;37.17;;;;;;;;;;4951242;28;20050;-66
2022/01/16 13:30:06;;;;;;;74.80;36.20;;;;;;;;;;4951755;28;20106;-67
2022/01/16 13:32:33;;;;;;;80.70;35.53;;;;;;;;;;4954689;28;20061;-66
2022/01/16 13:34:59;;;;;;;77.13;35.17;;;;;;;;;;4970851;28;20026;-66
2022/01/16 13:37:29;;;;;;;72.15;33.33;;;;;;;;;;5002103;28;20031;-66
2022/01/16 13:39:59;;;;;;;70.00;33.10;;;;;;;;;;4970933;28;20037;-66
2022/01/16 13:43:15;;;;;;;68.57;32.47;;;;;;;;;;4970683;28;20027;-66
2022/01/16 13:45:15;;;;;;;67.95;31.77;;;;;;;;;;4968954;28;20086;-66
2022/01/16 13:47:49;;;;;;;58.10;29.38;;;;;;;;;;4951862;28;20023;-66
2022/01/16 13:50:15;;;;;;;58.33;29.63;;;;;;;;;;4951624;28;20118;-68
2022/01/16 13:52:50;;;;;;;58.60;30.02;;;;;;;;;;4954768;28;20070;-67
2022/01/16 13:55:16;;;;;;;59.85;26.98;;;;;;;;;;4955837;28;20486;-67
2022/01/16 13:57:42;;;;;;;50.97;28.13;;;;;;;;;;4957735;28;20047;-66
2022/01/16 14:00:09;;;;;;;50.95;26.02;;;;;;;;;;4955595;28;20027;-66
2022/01/16 14:02:36;;;;;;;52.30;27.17;;;;;;;;;;4955464;28;20508;-66
2022/01/16 14:05:02;;;;;;;49.47;26.52;;;;;;;;;;4986252;28;20495;-66
2022/01/16 14:07:28;;;;;;;50.08;26.80;;;;;;;;;;4985663;28;20031;-66
2022/01/16 14:09:56;;;;;;;48.17;25.80;;;;;;;;;;4954945;28;20027;-68
2022/01/16 14:12:22;;;;;;;50.55;25.17;;;;;;;;;;4954827;28;20031;-66
2022/01/16 14:14:49;;;;;;;54.08;27.40;;;;;;;;;;4954883;28;20031;-68
2022/01/16 14:22:18;;;;;;;51.20;27.52;;;;;;;;;;4973726;28;20038;-65
2022/01/16 14:24:45;;;;;;;46.42;24.88;;;;;;;;;;4974468;28;20019;-66
2022/01/16 14:27:17;;;;;;;47.88;26.67;;;;;;;;;;4974307;28;20472;-66
2022/01/16 14:29:45;;;;;;;57.58;28.48;;;;;;;;;;4958835;28;20046;-66
2022/01/16 14:32:11;;;;;;;60.08;29.90;;;;;;;;;;4954467;28;20051;-67
2022/01/16 14:34:38;;;;;;;57.50;30.98;;;;;;;;;;4953858;28;20023;-66
2022/01/16 14:37:05;;;;;;;61.38;32.40;;;;;;;;;;4954324;28;20032;-66
2022/01/16 14:39:31;;;;;;;74.80;36.60;;;;;;;;;;4954032;28;20489;-66
2022/01/16 14:41:59;;;;;;;76.80;37.08;;;;;;;;;;4984906;28;20031;-66
2022/01/16 14:44:26;;;;;;;78.10;38.35;;;;;;;;;;4984459;28;20348;-67
2022/01/16 14:46:53;;;;;;;86.95;44.58;;;;;;;;;;4954357;28;20019;-66
2022/01/16 14:49:19;;;;;;;84.53;41.15;;;;;;;;;;4954133;28;20028;-66
2022/01/16 14:51:46;;;;;;;78.35;39.53;;;;;;;;;;4954330;28;20063;-67
2022/01/16 14:54:12;;;;;;;84.63;41.63;;;;;;;;;;4970110;28;20122;-66
2022/01/16 14:56:38;;;;;;;86.30;40.03;;;;;;;;;;4973978;28;20039;-67
2022/01/16 14:59:05;;;;;;;90.65;42.10;;;;;;;;;;4973968;28;20575;-66
2022/01/16 15:01:31;;;;;;;84.78;42.40;;;;;;;;;;4973747;28;20150;-66
2022/01/16 15:03:57;;;;;;;92.63;41.58;;;;;;;;;;4971091;28;20125;-66